createdAt,value
2022-10-19T00:02:10.844Z,10.00
2022-10-19T00:04:38.883Z,9.00
2022-10-19T00:07:06.764Z,7.00
2022-10-19T00:09:34.625Z,7.00
2022-10-19T00:12:02.484Z,8.00
2022-10-19T00:14:30.461Z,7.00
2022-10-19T00:16:58.435Z,8.00
2022-10-19T00:19:27.092Z,8.00
2022-10-19T00:21:55.220Z,9.00
2022-10-19T00:24:23.082Z,7.00
2022-10-19T00:26:50.827Z,7.00
2022-10-19T00:29:20.228Z,5.00
2022-10-19T00:31:49.740Z,7.00
2022-10-19T00:34:18.108Z,7.00
2022-10-19T00:36:46.689Z,8.00
2022-10-19T00:39:15.589Z,7.00
2022-10-19T00:41:44.372Z,7.50
2022-10-19T00:44:12.059Z,7.00
2022-10-19T00:46:41.635Z,7.00
2022-10-19T00:49:13.399Z,8.00
2022-10-19T00:51:42.170Z,5.00
2022-10-19T00:54:11.026Z,7.00
2022-10-19T00:56:41.311Z,8.00
2022-10-19T00:59:10.089Z,8.00
2022-10-19T01:01:38.166Z,7.00
2022-10-19T01:04:06.033Z,7.50
2022-10-19T01:06:34.079Z,6.00
2022-10-19T01:09:02.066Z,7.00
2022-10-19T01:11:41.912Z,7.00
2022-10-19T01:14:19.709Z,6.00
2022-10-19T01:16:53.838Z,4.00
2022-10-19T01:19:37.458Z,8.00
2022-10-19T01:22:08.151Z,7.00
2022-10-19T01:24:52.340Z,7.00
2022-10-19T01:27:20.207Z,7.00
2022-10-19T01:29:51.092Z,5.00
2022-10-19T01:32:21.989Z,7.00
2022-10-19T01:35:00.200Z,5.00
2022-10-19T01:37:48.851Z,5.00
2022-10-19T01:40:24.911Z,7.00
2022-10-19T01:43:03.020Z,6.00
2022-10-19T01:45:35.802Z,8.00
2022-10-19T01:48:07.248Z,6.00
2022-10-19T01:50:48.535Z,7.00
2022-10-19T01:53:18.236Z,7.00
2022-10-19T01:55:47.416Z,7.50
2022-10-19T01:58:17.771Z,7.00
2022-10-19T02:00:47.219Z,6.00
2022-10-19T02:03:15.849Z,4.50
2022-10-19T02:05:44.927Z,6.00
2022-10-19T02:08:17.303Z,7.00
2022-10-19T02:10:46.009Z,5.00
2022-10-19T02:13:15.373Z,7.00
2022-10-19T02:15:46.057Z,6.00
2022-10-19T02:18:17.703Z,6.00
2022-10-19T02:20:46.182Z,7.50
2022-10-19T02:23:17.114Z,6.00
2022-10-19T02:25:45.091Z,4.00
2022-10-19T02:28:13.309Z,4.00
2022-10-19T02:30:42.480Z,7.00
2022-10-19T02:33:12.497Z,6.50
2022-10-19T02:35:40.657Z,7.00
2022-10-19T02:38:10.937Z,6.00
2022-10-19T02:40:41.088Z,4.00
2022-10-19T02:43:14.184Z,6.00
2022-10-19T02:46:03.574Z,6.00
2022-10-19T02:48:34.191Z,4.00
2022-10-19T02:51:02.458Z,6.00
2022-10-19T02:53:30.333Z,4.00
2022-10-19T02:55:58.161Z,3.00
2022-10-19T02:58:26.070Z,7.00
2022-10-19T03:00:53.845Z,3.00
2022-10-19T03:03:21.590Z,6.00
2022-10-19T03:05:49.463Z,3.00
2022-10-19T03:08:17.327Z,4.00
2022-10-19T03:10:45.015Z,4.00
2022-10-19T03:13:12.864Z,4.00
2022-10-19T03:15:40.671Z,4.00
2022-10-19T03:18:08.485Z,4.00
2022-10-19T03:20:36.536Z,3.00
2022-10-19T03:23:04.431Z,6.00
2022-10-19T03:25:32.386Z,4.00
2022-10-19T03:28:00.161Z,6.00
2022-10-19T03:30:27.829Z,3.00
2022-10-19T03:32:55.588Z,3.00
2022-10-19T03:35:23.353Z,3.50
2022-10-19T03:37:51.098Z,6.00
2022-10-19T03:40:18.979Z,3.00
2022-10-19T03:42:46.744Z,3.00
2022-10-19T03:45:14.536Z,3.00
2022-10-19T03:47:42.273Z,6.00
2022-10-19T03:50:13.309Z,6.00
2022-10-19T03:52:41.021Z,3.00
2022-10-19T03:57:37.101Z,4.00
2022-10-19T04:00:05.254Z,4.00
2022-10-19T04:02:39.732Z,7.00
2022-10-19T04:05:08.102Z,4.00
2022-10-19T04:07:36.182Z,6.00
2022-10-19T04:10:04.957Z,7.00
2022-10-19T04:12:33.338Z,5.00
2022-10-19T04:15:01.066Z,7.00
2022-10-19T04:17:28.958Z,4.00
2022-10-19T04:19:56.835Z,5.00
2022-10-19T04:22:24.757Z,7.00
2022-10-19T04:24:53.543Z,4.00
2022-10-19T04:27:21.357Z,4.00
2022-10-19T04:29:49.225Z,3.00
2022-10-19T04:32:16.915Z,2.00
2022-10-19T04:34:44.754Z,4.00
2022-10-19T04:37:12.714Z,6.00
2022-10-19T04:39:43.254Z,5.00
2022-10-19T04:42:11.223Z,6.00
2022-10-19T04:44:39.725Z,6.00
2022-10-19T04:47:07.561Z,5.00
2022-10-19T04:49:35.433Z,4.00
2022-10-19T04:52:03.301Z,6.00
2022-10-19T04:54:31.268Z,6.50
2022-10-19T04:56:59.035Z,6.00
2022-10-19T04:59:26.911Z,7.00
2022-10-19T05:01:54.771Z,6.00
2022-10-19T05:04:22.627Z,6.00
2022-10-19T05:06:50.498Z,4.50
2022-10-19T05:09:18.268Z,5.00
2022-10-19T05:11:46.001Z,3.00
2022-10-19T05:14:13.809Z,6.00
2022-10-19T05:16:41.764Z,6.50
2022-10-19T05:19:15.573Z,4.00
2022-10-19T05:21:43.532Z,6.00
2022-10-19T05:24:13.456Z,6.00
2022-10-19T05:26:41.631Z,5.00
2022-10-19T05:29:12.066Z,4.00
2022-10-19T05:31:40.529Z,6.00
2022-10-19T05:36:41.267Z,6.00
2022-10-19T05:39:12.931Z,6.00
2022-10-19T05:41:43.122Z,5.00
2022-10-19T05:44:14.001Z,4.00
2022-10-19T05:46:41.878Z,8.00
2022-10-19T05:49:10.760Z,6.00
2022-10-19T05:51:39.128Z,7.50
2022-10-19T05:54:08.028Z,9.00
2022-10-19T05:56:35.898Z,8.00
2022-10-19T05:59:05.665Z,8.67
2022-10-19T06:01:34.368Z,10.00
2022-10-19T06:04:03.506Z,8.00
2022-10-19T06:06:31.660Z,7.00
2022-10-19T06:09:00.020Z,5.00
2022-10-19T06:11:30.062Z,5.00
2022-10-19T06:13:59.661Z,4.00
2022-10-19T06:16:27.636Z,4.50
2022-10-19T06:18:56.468Z,3.00
2022-10-19T06:21:26.234Z,4.00
2022-10-19T06:23:55.349Z,4.00
2022-10-19T06:26:23.921Z,4.00
2022-10-19T06:28:52.076Z,3.00
2022-10-19T06:31:19.973Z,4.00
2022-10-19T06:33:49.439Z,3.00
2022-10-19T06:36:19.450Z,4.00
2022-10-19T06:38:47.858Z,4.00
2022-10-19T06:41:15.677Z,3.00
2022-10-19T06:43:43.798Z,3.00
2022-10-19T06:46:17.621Z,3.00
2022-10-19T06:48:49.202Z,3.00
2022-10-19T06:51:17.838Z,3.00
2022-10-19T06:53:45.811Z,3.00
2022-10-19T06:56:13.576Z,2.00
2022-10-19T06:58:41.342Z,3.00
2022-10-19T07:01:10.729Z,2.00
2022-10-19T07:03:38.614Z,2.00
2022-10-19T07:06:11.086Z,2.50
2022-10-19T07:08:40.167Z,2.50
2022-10-19T07:11:09.691Z,2.00
2022-10-19T07:13:37.878Z,2.00
2022-10-19T07:16:07.553Z,3.00
2022-10-19T07:18:35.955Z,4.00
2022-10-19T07:21:05.358Z,2.00
2022-10-19T07:23:33.837Z,4.00
2022-10-19T07:26:05.905Z,3.00
2022-10-19T07:28:33.832Z,2.00
2022-10-19T07:31:06.451Z,3.50
2022-10-19T07:33:34.715Z,2.00
2022-10-19T07:36:04.018Z,2.00
2022-10-19T07:38:31.986Z,2.00
2022-10-19T07:41:01.191Z,3.00
2022-10-19T07:43:29.051Z,2.00
2022-10-19T07:46:05.209Z,2.00
2022-10-19T07:48:33.699Z,3.00
2022-10-19T07:51:02.379Z,2.00
2022-10-19T07:53:30.245Z,3.00
2022-10-19T07:56:03.448Z,3.00
2022-10-19T07:58:31.860Z,3.00
2022-10-19T08:01:01.035Z,1.00
2022-10-19T08:04:31.340Z,2.00
2022-10-19T08:06:19.291Z,3.00
2022-10-19T08:08:48.351Z,3.00
2022-10-19T08:11:18.326Z,3.00
2022-10-19T08:13:46.158Z,2.00
2022-10-19T08:16:23.029Z,2.00
2022-10-19T08:18:51.315Z,1.50
2022-10-19T08:21:19.595Z,2.00
2022-10-19T08:23:47.348Z,2.00
2022-10-19T08:26:15.323Z,4.00
2022-10-19T08:28:44.238Z,2.50
2022-10-19T08:31:16.452Z,2.00
2022-10-19T08:33:44.863Z,3.00
2022-10-19T08:36:13.566Z,3.00
2022-10-19T08:38:43.772Z,3.00
2022-10-19T08:41:23.317Z,3.00
2022-10-19T08:44:09.364Z,2.00
2022-10-19T08:46:40.958Z,3.00
2022-10-19T08:49:12.921Z,4.50
2022-10-19T08:51:43.244Z,3.00
2022-10-19T08:54:15.929Z,3.00
2022-10-19T08:57:04.371Z,3.00
2022-10-19T08:59:47.039Z,4.50
2022-10-19T09:02:34.979Z,3.00
2022-10-19T09:05:05.790Z,4.00
2022-10-19T09:07:37.616Z,3.00
2022-10-19T09:10:05.894Z,4.00
2022-10-19T09:12:57.734Z,5.00
2022-10-19T09:15:35.234Z,3.00
2022-10-19T09:18:03.198Z,4.00
2022-10-19T09:20:39.072Z,5.00
2022-10-19T09:23:19.614Z,6.00
2022-10-19T09:25:49.318Z,7.50
2022-10-19T09:28:31.550Z,7.00
2022-10-19T09:31:04.602Z,7.00
2022-10-19T09:33:37.683Z,9.00
2022-10-19T09:36:07.599Z,10.00
2022-10-19T09:38:35.584Z,12.00
2022-10-19T09:41:15.671Z,10.00
2022-10-19T09:43:56.075Z,9.00
2022-10-19T09:46:38.913Z,6.00
2022-10-19T09:49:07.185Z,7.00
2022-10-19T09:51:46.218Z,7.00
2022-10-19T09:54:32.598Z,6.00
2022-10-19T09:57:00.583Z,5.50
2022-10-19T09:59:29.990Z,8.00
2022-10-19T10:02:04.038Z,6.00
2022-10-19T10:04:32.078Z,7.50
2022-10-19T10:06:59.966Z,6.00
2022-10-19T10:09:28.892Z,7.00
2022-10-19T10:11:59.571Z,6.00
2022-10-19T10:14:32.656Z,5.00
2022-10-19T10:17:05.061Z,5.00
2022-10-19T10:19:34.123Z,5.00
2022-10-19T10:22:03.419Z,6.00
2022-10-19T10:24:32.212Z,6.00
2022-10-19T10:27:01.878Z,5.00
2022-10-19T10:29:32.723Z,5.00
2022-10-19T10:32:08.000Z,4.50
2022-10-19T10:34:58.545Z,6.00
2022-10-19T10:37:41.936Z,4.00
2022-10-19T10:40:23.683Z,4.00
2022-10-19T10:42:54.141Z,4.00
2022-10-19T10:45:29.387Z,5.00
2022-10-19T10:47:57.894Z,5.00
2022-10-19T10:50:31.573Z,5.00
2022-10-19T10:53:01.380Z,5.00
2022-10-19T10:55:30.384Z,5.00
2022-10-19T10:58:09.717Z,5.00
2022-10-19T11:00:40.470Z,5.00
2022-10-19T11:03:14.565Z,5.00
2022-10-19T11:05:46.930Z,4.50
2022-10-19T11:08:14.911Z,7.00
2022-10-19T11:10:47.413Z,5.00
2022-10-19T11:13:24.575Z,5.00
2022-10-19T11:15:59.188Z,5.00
2022-10-19T11:18:29.743Z,5.00
2022-10-19T11:21:12.231Z,5.00
2022-10-19T11:23:43.651Z,5.00
2022-10-19T11:26:30.285Z,4.00
2022-10-19T11:29:00.918Z,5.00
2022-10-19T11:31:36.989Z,5.00
2022-10-19T11:34:07.916Z,5.00
2022-10-19T11:36:42.745Z,4.00
2022-10-19T11:39:13.594Z,6.00
2022-10-19T11:41:50.555Z,6.50
2022-10-19T11:44:21.604Z,7.00
2022-10-19T11:47:08.209Z,5.00
2022-10-19T11:49:38.819Z,4.00
2022-10-19T11:52:25.442Z,4.00
2022-10-19T11:55:05.498Z,6.00
2022-10-19T11:57:47.694Z,5.00
2022-10-19T12:00:37.601Z,5.67
2022-10-19T12:03:22.860Z,5.00
2022-10-19T12:05:50.623Z,5.00
2022-10-19T12:08:23.744Z,6.00
2022-10-19T12:10:57.727Z,7.00
2022-10-19T12:13:40.030Z,7.00
2022-10-19T12:16:10.240Z,4.00
2022-10-19T12:18:37.878Z,5.00
2022-10-19T12:21:14.540Z,5.00
2022-10-19T12:23:45.017Z,3.00
2022-10-19T12:26:15.764Z,6.00
2022-10-19T12:28:47.920Z,4.00
2022-10-19T12:31:16.396Z,4.50
2022-10-19T12:33:46.504Z,7.00
2022-10-19T12:36:27.849Z,7.00
2022-10-19T12:39:14.298Z,8.00
2022-10-19T12:41:52.616Z,7.00
2022-10-19T12:44:39.214Z,9.00
2022-10-19T12:47:10.468Z,9.50
2022-10-19T12:50:07.551Z,11.00
2022-10-19T12:52:35.660Z,9.00
2022-10-19T12:55:24.959Z,8.50
2022-10-19T12:58:04.608Z,11.50
2022-10-19T13:00:34.498Z,11.00
2022-10-19T13:03:06.589Z,10.00
2022-10-19T13:05:35.298Z,9.00
2022-10-19T13:08:06.944Z,8.00
2022-10-19T13:10:37.654Z,9.50
2022-10-19T13:13:05.324Z,7.00
2022-10-19T13:15:36.265Z,10.00
2022-10-19T13:18:06.071Z,8.00
2022-10-19T13:20:33.960Z,11.00
2022-10-19T13:23:03.744Z,9.00
2022-10-19T13:25:32.333Z,10.00
2022-10-19T13:28:00.067Z,7.00
2022-10-19T13:30:41.996Z,7.00
2022-10-19T13:33:31.766Z,6.00
2022-10-19T13:35:59.688Z,8.00
2022-10-19T13:38:39.602Z,6.50
2022-10-19T13:41:07.379Z,7.00
2022-10-19T13:43:39.027Z,10.00
2022-10-19T13:46:14.759Z,8.00
2022-10-19T13:49:15.290Z,7.00
2022-10-19T13:51:55.655Z,7.00
2022-10-19T13:54:42.128Z,7.00
2022-10-19T13:57:13.206Z,9.00
2022-10-19T13:59:43.735Z,8.00
2022-10-19T14:02:14.357Z,10.00
2022-10-19T14:04:51.450Z,7.00
2022-10-19T14:07:23.831Z,10.00
2022-10-19T14:10:13.477Z,8.00
2022-10-19T14:12:42.896Z,7.00
2022-10-19T14:15:28.118Z,11.00
2022-10-19T14:17:56.570Z,11.00
2022-10-19T14:20:27.419Z,12.67
2022-10-19T14:22:55.672Z,11.00
2022-10-19T14:25:24.694Z,14.00
2022-10-19T14:28:05.221Z,12.00
2022-10-19T14:30:35.040Z,10.00
2022-10-19T14:33:07.817Z,12.50
2022-10-19T14:35:37.529Z,16.00
2022-10-19T14:38:06.520Z,12.00
2022-10-19T14:40:37.869Z,11.00
2022-10-19T14:43:22.531Z,10.50
2022-10-19T14:46:08.636Z,14.33
2022-10-19T14:48:38.131Z,13.00
2022-10-19T14:51:20.025Z,16.00
2022-10-19T14:53:50.773Z,14.00
2022-10-19T14:56:25.079Z,16.00
2022-10-19T14:58:55.907Z,15.00
2022-10-19T15:01:23.668Z,12.00
2022-10-19T15:03:51.936Z,12.67
2022-10-19T15:06:22.285Z,12.00
2022-10-19T15:11:27.224Z,12.00
2022-10-19T15:14:02.981Z,12.00
2022-10-19T15:16:40.566Z,8.00
2022-10-19T15:19:31.685Z,9.00
2022-10-19T15:22:08.756Z,8.00
2022-10-19T15:24:36.855Z,13.00
2022-10-19T15:27:10.025Z,12.00
2022-10-19T15:29:38.059Z,10.00
2022-10-19T15:32:16.227Z,13.00
2022-10-19T15:34:44.845Z,15.00
2022-10-19T15:37:17.642Z,13.50
2022-10-19T15:39:45.944Z,14.00
2022-10-19T15:42:33.228Z,14.00
2022-10-19T15:45:02.775Z,13.50
2022-10-19T15:47:31.453Z,11.50
2022-10-19T15:50:02.717Z,14.00
2022-10-19T15:52:34.126Z,8.00
2022-10-19T15:55:02.238Z,12.50
2022-10-19T15:57:29.995Z,12.00
2022-10-19T16:00:00.295Z,9.50
2022-10-19T16:02:28.585Z,11.67
2022-10-19T16:04:56.680Z,9.00
2022-10-19T16:07:26.934Z,9.50
2022-10-19T16:09:54.929Z,11.00
2022-10-19T16:12:23.977Z,8.00
2022-10-19T16:14:52.241Z,9.00
2022-10-19T16:17:20.508Z,11.50
2022-10-19T16:19:48.973Z,11.00
2022-10-19T16:22:17.027Z,11.00
2022-10-19T16:24:44.824Z,12.00
2022-10-19T16:27:15.458Z,13.00
2022-10-19T16:29:44.538Z,12.33
2022-10-19T16:32:12.320Z,11.00
2022-10-19T16:34:41.454Z,16.00
2022-10-19T16:37:09.390Z,16.00
2022-10-19T16:39:37.190Z,12.00
2022-10-19T16:42:04.936Z,9.00
2022-10-19T16:44:33.085Z,13.00
2022-10-19T16:47:00.776Z,7.50
2022-10-19T16:49:28.723Z,12.00
2022-10-19T16:51:57.747Z,14.00
2022-10-19T16:54:36.040Z,12.33
2022-10-19T16:57:10.107Z,9.67
2022-10-19T16:59:38.206Z,12.00
2022-10-19T17:02:06.075Z,15.00
2022-10-19T17:04:34.305Z,13.00
2022-10-19T17:07:02.739Z,13.00
2022-10-19T17:09:41.347Z,13.00
2022-10-19T17:12:11.162Z,11.33
2022-10-19T17:14:39.857Z,13.00
2022-10-19T17:17:08.020Z,14.00
2022-10-19T17:19:37.003Z,11.00
2022-10-19T17:22:05.720Z,14.00
2022-10-19T17:24:33.779Z,13.00
2022-10-19T17:27:03.078Z,12.00
2022-10-19T17:29:31.455Z,14.00
2022-10-19T17:31:59.632Z,11.00
2022-10-19T17:34:27.596Z,11.00
2022-10-19T17:36:55.462Z,10.00
2022-10-19T17:39:28.983Z,11.00
2022-10-19T17:42:02.219Z,8.00
2022-10-19T17:44:31.701Z,8.00
2022-10-19T17:47:00.344Z,8.00
2022-10-19T17:49:30.004Z,10.00
2022-10-19T17:51:58.611Z,13.00
2022-10-19T17:54:26.741Z,15.00
2022-10-19T17:56:54.994Z,15.50
2022-10-19T17:59:30.505Z,13.00
2022-10-19T18:02:04.348Z,12.00
2022-10-19T18:04:32.487Z,15.33
2022-10-19T18:07:00.395Z,18.00
2022-10-19T18:09:28.260Z,13.00
2022-10-19T18:11:56.117Z,14.00
2022-10-19T18:14:23.892Z,14.00
2022-10-19T18:16:52.265Z,17.00
2022-10-19T18:19:20.107Z,14.00
2022-10-19T18:21:49.258Z,15.00
2022-10-19T18:24:20.000Z,16.00
2022-10-19T18:26:48.951Z,19.00
2022-10-19T18:29:21.523Z,15.00
2022-10-19T18:31:52.474Z,15.50
2022-10-19T18:34:22.896Z,18.00
2022-10-19T18:36:51.787Z,13.00
2022-10-19T18:39:19.844Z,15.00
2022-10-19T18:41:51.954Z,18.00
2022-10-19T18:44:25.236Z,12.67
2022-10-19T18:46:56.055Z,15.00
2022-10-19T18:49:24.516Z,13.00
2022-10-19T18:51:55.264Z,14.50
2022-10-19T18:54:26.505Z,15.00
2022-10-19T18:56:55.090Z,14.00
2022-10-19T18:59:23.299Z,15.00
2022-10-19T19:01:51.294Z,16.00
2022-10-19T19:04:19.312Z,14.00
2022-10-19T19:06:47.062Z,19.00
2022-10-19T19:09:14.848Z,15.00
2022-10-19T19:11:42.820Z,18.00
2022-10-19T19:14:13.237Z,15.50
2022-10-19T19:16:42.237Z,14.50
2022-10-19T19:19:10.869Z,17.00
2022-10-19T19:21:41.004Z,17.00
2022-10-19T19:24:14.137Z,14.00
2022-10-19T19:26:45.317Z,14.00
2022-10-19T19:29:13.349Z,15.00
2022-10-19T19:31:41.214Z,12.00
2022-10-19T19:34:12.154Z,13.50
2022-10-19T19:36:47.028Z,11.00
2022-10-19T19:39:16.480Z,15.00
2022-10-19T19:41:44.448Z,12.00
2022-10-19T19:44:12.226Z,8.00
2022-10-19T19:46:39.986Z,13.00
2022-10-19T19:49:07.847Z,13.00
2022-10-19T19:51:36.235Z,11.50
2022-10-19T19:54:04.516Z,16.00
2022-10-19T19:56:32.841Z,12.00
2022-10-19T19:59:03.588Z,12.00
2022-10-19T20:01:32.499Z,12.00
2022-10-19T20:06:31.465Z,13.00
2022-10-19T20:08:59.334Z,13.00
2022-10-19T20:11:28.376Z,10.00
2022-10-19T20:13:56.558Z,10.00
2022-10-19T20:16:28.297Z,8.50
2022-10-19T20:19:03.962Z,9.00
2022-10-19T20:21:33.811Z,6.00
2022-10-19T20:24:02.105Z,11.00
2022-10-19T20:26:30.449Z,8.00
2022-10-19T20:28:58.652Z,5.00
2022-10-19T20:33:54.208Z,8.00
2022-10-19T20:36:26.095Z,5.00
2022-10-19T20:38:55.604Z,8.00
2022-10-19T20:41:24.603Z,6.00
2022-10-19T20:43:53.838Z,5.00
2022-10-19T20:46:23.197Z,6.00
2022-10-19T20:48:51.364Z,6.00
2022-10-19T20:51:27.581Z,9.00
2022-10-19T20:53:59.377Z,6.00
2022-10-19T20:56:28.694Z,7.00
2022-10-19T20:59:00.603Z,8.00
2022-10-19T21:01:30.105Z,6.00
2022-10-19T21:04:00.820Z,8.00
2022-10-19T21:06:29.787Z,5.00
2022-10-19T21:08:59.028Z,7.00
2022-10-19T21:11:31.855Z,5.00
2022-10-19T21:14:01.069Z,6.00
2022-10-19T21:16:35.672Z,6.00
2022-10-19T21:19:05.191Z,6.00
2022-10-19T21:21:35.692Z,6.00
2022-10-19T21:24:05.541Z,5.00
2022-10-19T21:26:34.560Z,8.00
2022-10-19T21:29:02.969Z,6.00
2022-10-19T21:31:30.989Z,4.00
2022-10-19T21:33:59.257Z,4.00
2022-10-19T21:36:27.227Z,5.00
2022-10-19T21:38:56.120Z,6.00
2022-10-19T21:41:26.386Z,5.00
2022-10-19T21:43:55.031Z,5.00
2022-10-19T21:46:23.606Z,4.00
2022-10-19T21:48:52.343Z,5.00
2022-10-19T21:51:28.256Z,4.00
2022-10-19T21:53:56.144Z,4.00
2022-10-19T21:56:23.993Z,5.00
2022-10-19T21:58:53.216Z,5.00
2022-10-19T22:01:22.475Z,6.00
2022-10-19T22:03:50.462Z,5.00
2022-10-19T22:06:18.530Z,5.00
2022-10-19T22:08:46.656Z,6.00
2022-10-19T22:11:15.049Z,5.00
2022-10-19T22:13:43.353Z,4.00
2022-10-19T22:16:19.061Z,5.00
2022-10-19T22:18:47.900Z,5.00
2022-10-19T22:21:17.292Z,6.00
2022-10-19T22:23:45.321Z,5.00
2022-10-19T22:26:14.680Z,5.00
2022-10-19T22:28:42.737Z,6.00
2022-10-19T22:31:11.604Z,7.00
2022-10-19T22:33:39.599Z,4.00
2022-10-19T22:36:09.005Z,4.00
2022-10-19T22:38:37.484Z,4.00
2022-10-19T22:41:05.142Z,4.00
2022-10-19T22:43:32.916Z,3.00
2022-10-19T22:46:00.673Z,5.00
2022-10-19T22:48:28.291Z,3.00
2022-10-19T22:50:56.095Z,4.00
2022-10-19T22:53:24.166Z,4.00
2022-10-19T22:55:51.799Z,5.00
2022-10-19T22:58:19.913Z,4.00
2022-10-19T23:00:58.489Z,7.00
2022-10-19T23:03:26.182Z,7.00
2022-10-19T23:05:54.052Z,5.00
2022-10-19T23:08:21.819Z,4.00
2022-10-19T23:10:49.768Z,3.00
2022-10-19T23:13:17.960Z,3.00
2022-10-19T23:15:45.804Z,6.00
2022-10-19T23:18:13.655Z,7.00
2022-10-19T23:20:41.323Z,6.00
2022-10-19T23:23:09.235Z,8.00
2022-10-19T23:25:36.990Z,6.00
2022-10-19T23:28:05.062Z,5.00
2022-10-19T23:30:32.705Z,4.00
2022-10-19T23:33:00.487Z,5.00
2022-10-19T23:35:28.158Z,5.00
2022-10-19T23:37:55.914Z,5.00
2022-10-19T23:40:23.602Z,7.00
2022-10-19T23:42:51.757Z,5.00
2022-10-19T23:45:19.511Z,7.00
2022-10-19T23:47:47.174Z,4.00
2022-10-19T23:50:14.938Z,4.50
2022-10-19T23:52:42.618Z,5.00
2022-10-19T23:55:10.365Z,6.00
2022-10-19T23:57:38.381Z,4.00
